Time;durP1;ratioP1;P1;durP2;ratioP2;P2;SDS_P1;SDS_P2;PMS_P1;PMS_P2;Temp;Humidity;BMP_temperature;BMP_pressure;BME280_temperature;BME280_humidity;BME280_pressure;Samples;Min_cycle;Max_cycle;Signal;HPM_P1;HPM_P2
2024/01/31 00:01:35;;;;;;;19.10;15.00;;;11.20;99.90;;;;;;4977419;28;20566;-68
2024/01/31 00:04:01;;;;;;;18.90;14.47;;;11.20;99.90;;;;;;4995046;28;20437;-69
2024/01/31 00:06:27;;;;;;;16.47;14.37;;;11.20;99.90;;;;;;4977313;28;20526;-62
2024/01/31 00:08:54;;;;;;;18.33;14.60;;;11.20;99.90;;;;;;4994777;28;20179;-69
2024/01/31 00:11:20;;;;;;;16.90;13.83;;;11.20;99.90;;;;;;4996062;28;20936;-69
2024/01/31 00:13:46;;;;;;;19.10;14.80;;;11.30;99.90;;;;;;4993995;28;20423;-68
2024/01/31 00:16:14;;;;;;;20.03;14.43;;;11.20;99.90;;;;;;4995563;28;20420;-68
2024/01/31 00:18:40;;;;;;;20.10;14.60;;;11.20;99.90;;;;;;4994238;28;20220;-68
2024/01/31 00:21:06;;;;;;;9.40;8.30;;;11.20;99.90;;;;;;4993717;28;20465;-68
2024/01/31 00:23:32;;;;;;;7.33;6.30;;;11.10;99.90;;;;;;4993976;28;20432;-68
2024/01/31 00:25:57;;;;;;;7.30;5.50;;;11.10;99.90;;;;;;4994350;28;20194;-67
2024/01/31 00:28:24;;;;;;;6.50;4.77;;;11.10;99.90;;;;;;4994969;28;20185;-68
2024/01/31 00:30:49;;;;;;;4.77;4.37;;;11.20;99.90;;;;;;4993800;28;20287;-67
2024/01/31 00:33:15;;;;;;;7.40;4.00;;;11.10;99.90;;;;;;4995875;28;20505;-67
2024/01/31 00:35:41;;;;;;;3.83;3.60;;;11.10;99.90;;;;;;4993445;28;20698;-67
2024/01/31 00:38:07;;;;;;;3.60;3.40;;;11.10;99.90;;;;;;4995029;28;20607;-68
2024/01/31 00:40:32;;;;;;;4.20;3.80;;;11.10;99.90;;;;;;4976399;28;20179;-67
2024/01/31 00:42:58;;;;;;;5.00;4.70;;;11.20;99.90;;;;;;4995610;28;20261;-68
2024/01/31 00:45:24;;;;;;;4.20;3.90;;;11.10;99.90;;;;;;4994840;28;20186;-68
2024/01/31 00:47:50;;;;;;;4.13;3.60;;;11.10;99.90;;;;;;4993841;28;20454;-68
2024/01/31 00:50:15;;;;;;;4.27;3.60;;;11.10;99.90;;;;;;4978359;28;20176;-68
2024/01/31 00:52:41;;;;;;;5.53;4.33;;;11.10;99.90;;;;;;4993827;28;20267;-68
2024/01/31 00:55:08;;;;;;;6.83;3.93;;;11.10;99.90;;;;;;4994805;28;20186;-68
2024/01/31 00:57:34;;;;;;;5.30;3.93;;;11.10;99.90;;;;;;4994310;28;20417;-68
2024/01/31 01:00:04;;;;;;;4.60;4.30;;;11.10;99.90;;;;;;4994658;28;20434;-68
2024/01/31 01:02:30;;;;;;;6.77;5.07;;;11.00;99.90;;;;;;4992583;28;20280;-62
2024/01/31 01:04:56;;;;;;;4.10;3.70;;;11.10;99.90;;;;;;4995622;28;20554;-68
2024/01/31 01:07:22;;;;;;;4.73;4.10;;;11.00;99.90;;;;;;4994509;28;20514;-68
2024/01/31 01:09:48;;;;;;;4.83;4.40;;;11.00;99.90;;;;;;4993088;28;20201;-68
2024/01/31 01:12:13;;;;;;;8.60;5.00;;;11.00;99.90;;;;;;4977016;28;20619;-68
2024/01/31 01:14:39;;;;;;;6.43;5.70;;;11.00;99.90;;;;;;4994257;28;20175;-67
2024/01/31 01:17:05;;;;;;;7.40;5.87;;;11.00;99.90;;;;;;4976903;28;20227;-68
2024/01/31 01:19:31;;;;;;;8.30;6.43;;;11.00;99.90;;;;;;4994900;28;20175;-62
2024/01/31 01:21:57;;;;;;;9.30;6.73;;;11.00;99.90;;;;;;4993759;28;20211;-68
2024/01/31 01:24:23;;;;;;;7.43;6.73;;;11.00;99.90;;;;;;4973543;28;20528;-69
2024/01/31 01:26:49;;;;;;;7.73;6.40;;;11.00;99.90;;;;;;4983865;28;20632;-68
2024/01/31 01:29:15;;;;;;;8.40;6.30;;;10.90;99.90;;;;;;4994611;28;20431;-68
2024/01/31 01:31:41;;;;;;;8.93;6.87;;;11.00;99.90;;;;;;4992829;28;20279;-69
2024/01/31 01:34:07;;;;;;;11.17;6.40;;;11.00;99.90;;;;;;4994097;28;20466;-69
2024/01/31 01:36:32;;;;;;;6.43;5.80;;;11.00;99.90;;;;;;4994401;28;20178;-62
2024/01/31 01:38:58;;;;;;;6.60;6.00;;;11.00;99.90;;;;;;4993615;28;20195;-69
2024/01/31 01:41:24;;;;;;;7.60;6.43;;;11.00;99.90;;;;;;4993616;28;20562;-69
2024/01/31 01:43:49;;;;;;;7.30;6.60;;;11.00;99.90;;;;;;4993100;28;20185;-68
2024/01/31 01:46:20;;;;;;;8.80;6.77;;;11.00;99.90;;;;;;4994787;28;20176;-68
2024/01/31 01:48:47;;;;;;;9.23;8.33;;;11.00;99.90;;;;;;4993158;28;20219;-68
2024/01/31 01:51:17;;;;;;;10.10;8.50;;;11.10;99.90;;;;;;4993856;28;20441;-68
2024/01/31 01:53:45;;;;;;;8.97;8.00;;;11.10;99.90;;;;;;4993683;28;20770;-68
2024/01/31 01:56:13;;;;;;;9.70;8.77;;;11.10;99.90;;;;;;4993998;28;20426;-68
2024/01/31 01:58:40;;;;;;;9.60;7.73;;;11.10;99.90;;;;;;4992827;28;20431;-68
2024/01/31 02:01:07;;;;;;;10.03;8.87;;;11.00;99.90;;;;;;4993424;28;20473;-68
2024/01/31 02:03:34;;;;;;;10.23;9.03;;;11.00;99.90;;;;;;4994100;28;20399;-62
2024/01/31 02:06:01;;;;;;;9.40;8.50;;;11.00;99.90;;;;;;4993354;28;20481;-68
2024/01/31 02:08:27;;;;;;;10.70;9.13;;;10.90;99.90;;;;;;4993491;28;20434;-68
2024/01/31 02:10:53;;;;;;;11.00;8.63;;;11.00;99.90;;;;;;4993535;28;20406;-68
2024/01/31 02:13:19;;;;;;;9.60;8.70;;;11.00;99.90;;;;;;4993079;28;20478;-69
2024/01/31 02:15:54;;;;;;;10.80;9.20;;;11.00;99.90;;;;;;4992321;28;20435;-69
2024/01/31 02:18:26;;;;;;;10.07;9.07;;;11.00;99.90;;;;;;4993145;28;20822;-69
2024/01/31 02:20:52;;;;;;;11.40;9.27;;;11.00;99.90;;;;;;4971093;28;21276;-68
2024/01/31 02:23:18;;;;;;;13.03;9.93;;;11.00;99.90;;;;;;4990074;28;20558;-68
2024/01/31 02:25:45;;;;;;;13.13;9.43;;;11.00;99.90;;;;;;4993222;28;20398;-68
2024/01/31 02:28:10;;;;;;;12.13;9.60;;;11.00;99.90;;;;;;4992517;28;20816;-69
2024/01/31 02:30:36;;;;;;;12.00;9.47;;;11.00;99.90;;;;;;4992375;28;20465;-62
2024/01/31 02:33:02;;;;;;;13.70;11.57;;;11.00;99.90;;;;;;4993178;28;20655;-68
2024/01/31 02:35:33;;;;;;;11.93;10.63;;;11.00;99.90;;;;;;4992903;28;20618;-69
2024/01/31 02:37:59;;;;;;;11.50;10.47;;;11.00;99.90;;;;;;4993597;28;20191;-69
2024/01/31 02:40:25;;;;;;;14.73;10.67;;;11.10;99.90;;;;;;4991380;28;20447;-68
2024/01/31 02:42:50;;;;;;;14.60;11.00;;;11.10;99.90;;;;;;4974669;28;20490;-69
2024/01/31 02:45:16;;;;;;;11.90;10.70;;;11.10;99.90;;;;;;4993921;28;20172;-69
2024/01/31 02:47:42;;;;;;;12.83;9.93;;;11.10;99.90;;;;;;4991566;28;20449;-69
2024/01/31 02:50:08;;;;;;;11.40;10.20;;;11.10;99.90;;;;;;4992795;28;20436;-69
2024/01/31 02:52:34;;;;;;;11.53;9.80;;;11.10;99.90;;;;;;4975842;28;20177;-63
2024/01/31 02:55:01;;;;;;;10.30;9.13;;;11.20;99.90;;;;;;4991703;28;20427;-68
2024/01/31 02:57:27;;;;;;;10.13;8.93;;;11.20;99.90;;;;;;4992377;28;20196;-68
2024/01/31 02:59:53;;;;;;;11.37;9.63;;;11.10;99.90;;;;;;4992380;28;20468;-67
2024/01/31 03:02:19;;;;;;;10.77;9.50;;;11.20;99.90;;;;;;4992343;28;20467;-69
2024/01/31 03:04:44;;;;;;;12.83;9.90;;;11.20;99.90;;;;;;4991404;28;20989;-68
2024/01/31 03:07:11;;;;;;;10.57;9.47;;;11.20;99.90;;;;;;4991925;28;20172;-69
2024/01/31 03:09:37;;;;;;;11.00;9.83;;;11.20;99.90;;;;;;4991988;28;20187;-63
2024/01/31 03:12:06;;;;;;;15.37;11.30;;;11.20;99.90;;;;;;4971813;28;20464;-69
2024/01/31 03:14:35;;;;;;;11.73;9.80;;;11.20;99.90;;;;;;4973799;28;20400;-69
2024/01/31 03:17:01;;;;;;;12.40;10.17;;;11.10;99.90;;;;;;4991107;28;20479;-68
2024/01/31 03:19:29;;;;;;;12.63;10.90;;;11.10;99.90;;;;;;4992561;28;20435;-68
2024/01/31 03:21:55;;;;;;;12.93;9.90;;;11.20;99.90;;;;;;4966821;28;20468;-68
2024/01/31 03:24:22;;;;;;;16.93;11.20;;;11.20;99.90;;;;;;4975662;28;20761;-68
2024/01/31 03:26:48;;;;;;;12.83;9.67;;;11.20;99.90;;;;;;4989315;28;20438;-68
2024/01/31 03:29:14;;;;;;;12.23;9.70;;;11.20;99.90;;;;;;4991240;28;20434;-68
2024/01/31 03:31:40;;;;;;;12.77;10.90;;;11.20;99.90;;;;;;4992310;28;20434;-62
2024/01/31 03:34:06;;;;;;;12.10;9.90;;;11.20;99.90;;;;;;4989612;28;20424;-68
2024/01/31 03:36:35;;;;;;;13.80;10.13;;;11.20;99.90;;;;;;4992113;28;20441;-68
2024/01/31 03:39:01;;;;;;;13.27;10.77;;;11.10;99.90;;;;;;4992125;28;20403;-68
2024/01/31 03:41:27;;;;;;;12.43;10.20;;;11.10;99.90;;;;;;4991084;28;20475;-68
2024/01/31 03:43:54;;;;;;;12.00;9.90;;;11.10;99.90;;;;;;4974036;28;20859;-68
2024/01/31 03:46:20;;;;;;;13.50;11.00;;;11.10;99.90;;;;;;4992854;28;20817;-68
2024/01/31 03:48:46;;;;;;;14.93;10.13;;;11.10;99.90;;;;;;4990960;28;20426;-68
2024/01/31 03:51:22;;;;;;;15.17;11.00;;;11.10;99.90;;;;;;4991773;28;20938;-69
2024/01/31 03:53:48;;;;;;;12.27;10.83;;;11.10;99.90;;;;;;4991190;28;20416;-68
2024/01/31 03:56:15;;;;;;;12.33;11.03;;;11.10;99.90;;;;;;4992541;28;20421;-69
2024/01/31 03:58:41;;;;;;;15.03;10.60;;;11.10;99.90;;;;;;4974104;28;20826;-62
2024/01/31 04:01:08;;;;;;;12.03;10.57;;;11.10;99.90;;;;;;4991775;28;20473;-69
2024/01/31 04:03:36;;;;;;;10.17;8.77;;;11.10;99.90;;;;;;4992621;28;20414;-68
2024/01/31 04:06:02;;;;;;;9.67;8.70;;;11.10;99.90;;;;;;4990839;28;20439;-68
2024/01/31 04:08:27;;;;;;;11.73;7.70;;;11.00;99.90;;;;;;4991661;28;20482;-68
2024/01/31 04:10:53;;;;;;;7.40;6.70;;;11.10;99.90;;;;;;4970356;28;20512;-68
2024/01/31 04:13:19;;;;;;;7.77;6.97;;;11.00;99.90;;;;;;4973136;28;20180;-68
2024/01/31 04:15:45;;;;;;;8.63;6.43;;;11.00;99.90;;;;;;4987083;28;20214;-68
2024/01/31 04:18:11;;;;;;;7.20;6.50;;;10.90;99.90;;;;;;4990965;28;20317;-69
2024/01/31 04:20:38;;;;;;;7.63;6.83;;;10.90;99.90;;;;;;4992518;28;20502;-68
2024/01/31 04:23:07;;;;;;;6.37;5.77;;;10.90;99.90;;;;;;4990806;28;20273;-68
2024/01/31 04:25:34;;;;;;;10.90;6.57;;;10.90;99.90;;;;;;4991573;28;20450;-68
2024/01/31 04:27:59;;;;;;;6.13;5.50;;;10.90;99.90;;;;;;4991830;28;20418;-68
2024/01/31 04:30:25;;;;;;;6.50;5.63;;;10.90;99.90;;;;;;4991818;28;20437;-68
2024/01/31 04:32:51;;;;;;;6.97;5.87;;;10.90;99.90;;;;;;4990558;28;20532;-68
2024/01/31 04:35:17;;;;;;;8.77;6.40;;;10.90;99.90;;;;;;4992027;28;20444;-68
2024/01/31 04:37:43;;;;;;;6.83;6.00;;;10.90;99.90;;;;;;4992724;28;20430;-62
2024/01/31 04:40:09;;;;;;;5.80;4.97;;;10.90;99.90;;;;;;4994998;28;20674;-68
2024/01/31 04:42:36;;;;;;;6.93;6.20;;;10.90;99.90;;;;;;4995647;28;20481;-69
2024/01/31 04:45:03;;;;;;;7.07;4.90;;;10.90;99.90;;;;;;4993974;28;20484;-69
2024/01/31 04:47:29;;;;;;;5.87;5.13;;;10.90;99.90;;;;;;4994910;28;20458;-69
2024/01/31 04:49:56;;;;;;;6.70;5.20;;;10.80;99.90;;;;;;4994115;28;20525;-69
2024/01/31 04:52:22;;;;;;;5.77;5.30;;;10.80;99.90;;;;;;4995596;28;20453;-68
2024/01/31 04:54:50;;;;;;;6.07;4.70;;;10.90;99.90;;;;;;4994408;28;20431;-68
2024/01/31 04:57:16;;;;;;;5.83;5.30;;;10.90;99.90;;;;;;4995064;28;20415;-68
2024/01/31 04:59:42;;;;;;;6.37;4.70;;;10.90;99.90;;;;;;4995400;28;20411;-62
2024/01/31 05:02:09;;;;;;;5.77;4.83;;;10.90;99.90;;;;;;4994073;28;20471;-68
2024/01/31 05:04:36;;;;;;;5.50;4.50;;;10.90;99.90;;;;;;4994734;28;20407;-67
2024/01/31 05:07:02;;;;;;;7.50;5.20;;;10.90;99.90;;;;;;4994777;28;20690;-68
2024/01/31 05:09:28;;;;;;;6.33;5.00;;;10.90;99.90;;;;;;4994361;28;20440;-68
2024/01/31 05:11:53;;;;;;;6.33;5.33;;;10.90;99.90;;;;;;4993397;28;20767;-68
2024/01/31 05:14:20;;;;;;;7.07;4.77;;;10.90;99.90;;;;;;4995158;28;20267;-68
2024/01/31 05:16:45;;;;;;;5.70;4.97;;;10.80;99.90;;;;;;4993432;28;20194;-61
2024/01/31 05:19:14;;;;;;;7.33;4.60;;;10.80;99.90;;;;;;4993553;28;20919;-67
2024/01/31 05:21:46;;;;;;;6.40;5.70;;;10.80;99.90;;;;;;4994473;28;20738;-68
2024/01/31 05:24:12;;;;;;;8.23;6.53;;;10.80;99.90;;;;;;4993879;28;20431;-68
2024/01/31 05:26:38;;;;;;;7.43;4.70;;;10.70;99.90;;;;;;4994467;28;20435;-68
2024/01/31 05:29:04;;;;;;;5.20;4.70;;;10.70;99.90;;;;;;4994127;28;20431;-68
2024/01/31 05:31:30;;;;;;;5.13;4.73;;;10.70;99.90;;;;;;4993919;28;20511;-68
2024/01/31 05:33:56;;;;;;;4.40;3.93;;;10.70;99.90;;;;;;4992997;28;20254;-69
2024/01/31 05:36:21;;;;;;;5.53;5.03;;;10.70;99.90;;;;;;4993763;28;20244;-68
2024/01/31 05:38:47;;;;;;;5.70;5.20;;;10.70;99.90;;;;;;4994518;28;20185;-61
2024/01/31 05:41:13;;;;;;;6.53;4.97;;;10.70;99.90;;;;;;4993440;28;20222;-68
2024/01/31 05:43:39;;;;;;;6.23;4.23;;;10.70;99.90;;;;;;4994945;28;20183;-68
2024/01/31 05:46:05;;;;;;;6.37;4.77;;;10.70;99.90;;;;;;4992915;28;20823;-68
2024/01/31 05:48:31;;;;;;;5.70;5.03;;;10.70;99.90;;;;;;4993026;28;20632;-68
2024/01/31 05:50:57;;;;;;;5.57;5.00;;;10.60;99.90;;;;;;4993020;28;20646;-68
2024/01/31 05:53:23;;;;;;;6.07;5.47;;;10.60;99.90;;;;;;4994720;28;20410;-69
2024/01/31 05:55:49;;;;;;;6.80;5.30;;;10.60;99.90;;;;;;4972240;28;20211;-62
2024/01/31 05:58:14;;;;;;;8.10;5.90;;;10.60;99.90;;;;;;4975108;28;20262;-68
2024/01/31 06:00:40;;;;;;;9.40;6.60;;;10.60;99.90;;;;;;4977072;28;20892;-69
2024/01/31 06:03:06;;;;;;;9.73;6.27;;;10.60;99.90;;;;;;4992467;28;20204;-68
2024/01/31 06:05:32;;;;;;;7.07;6.37;;;10.60;99.90;;;;;;4994560;28;20905;-69
2024/01/31 06:07:58;;;;;;;9.07;7.53;;;10.70;99.90;;;;;;4990943;28;20432;-67
2024/01/31 06:10:24;;;;;;;7.33;6.00;;;10.70;99.90;;;;;;4992821;28;20184;-69
2024/01/31 06:12:50;;;;;;;8.40;6.43;;;10.70;99.90;;;;;;4992216;28;20390;-65
2024/01/31 06:15:17;;;;;;;8.47;7.00;;;10.70;99.90;;;;;;4994210;28;20490;-69
2024/01/31 06:17:43;;;;;;;9.13;8.23;;;10.70;99.90;;;;;;4972412;28;20552;-68
2024/01/31 06:20:10;;;;;;;10.67;8.63;;;10.70;99.90;;;;;;4972812;28;20431;-68
2024/01/31 06:22:36;;;;;;;12.70;8.90;;;10.70;99.90;;;;;;4973678;28;20513;-68
2024/01/31 06:25:02;;;;;;;10.97;8.60;;;10.70;99.90;;;;;;4973965;28;20419;-68
2024/01/31 06:27:28;;;;;;;13.50;8.77;;;10.70;99.90;;;;;;4973487;28;20184;-67
2024/01/31 06:29:53;;;;;;;11.20;8.70;;;10.60;99.90;;;;;;4972786;28;20978;-67
2024/01/31 06:32:22;;;;;;;13.87;9.27;;;10.70;99.90;;;;;;4974649;28;20189;-68
2024/01/31 06:34:48;;;;;;;11.80;9.10;;;10.70;99.90;;;;;;4973499;28;20181;-61
2024/01/31 06:37:15;;;;;;;11.30;9.10;;;10.70;99.90;;;;;;4973154;28;20428;-69
2024/01/31 06:39:40;;;;;;;15.07;10.17;;;10.70;99.90;;;;;;4972515;28;20428;-69
2024/01/31 06:42:07;;;;;;;14.37;12.07;;;10.70;99.90;;;;;;4972419;28;20977;-69
2024/01/31 06:44:33;;;;;;;12.80;11.07;;;10.70;99.90;;;;;;4972994;28;20185;-69
2024/01/31 06:46:59;;;;;;;13.50;10.73;;;10.60;99.90;;;;;;4973988;28;20426;-69
2024/01/31 06:49:25;;;;;;;13.00;11.60;;;10.60;99.90;;;;;;4973693;28;20442;-69
2024/01/31 06:51:51;;;;;;;14.60;11.40;;;10.60;99.90;;;;;;4973015;28;20194;-68
2024/01/31 06:54:17;;;;;;;14.00;10.83;;;10.60;99.90;;;;;;4972794;28;20326;-68
2024/01/31 06:56:43;;;;;;;12.13;10.63;;;10.60;99.90;;;;;;4973273;28;20431;-69
2024/01/31 06:59:09;;;;;;;14.00;11.07;;;10.60;99.90;;;;;;4973604;28;20420;-68
2024/01/31 07:01:35;;;;;;;19.37;12.63;;;10.60;99.90;;;;;;4974201;28;20470;-68
2024/01/31 07:04:01;;;;;;;14.10;11.43;;;10.50;99.90;;;;;;4973132;28;20184;-68
2024/01/31 07:06:26;;;;;;;13.93;11.90;;;10.60;99.90;;;;;;4974187;28;20937;-69
2024/01/31 07:08:52;;;;;;;13.87;11.13;;;10.60;99.90;;;;;;4972564;28;20904;-67
2024/01/31 07:11:18;;;;;;;16.30;12.60;;;10.60;99.90;;;;;;4973064;28;20191;-66
2024/01/31 07:13:43;;;;;;;18.00;12.57;;;10.60;99.90;;;;;;4977908;28;20594;-62
2024/01/31 07:16:10;;;;;;;14.60;12.00;;;10.60;99.90;;;;;;4970815;28;20398;-62
2024/01/31 07:18:38;;;;;;;14.30;12.07;;;10.60;99.90;;;;;;4987395;28;20306;-62
2024/01/31 07:21:04;;;;;;;12.57;11.20;;;10.60;99.90;;;;;;4991185;28;20527;-63
2024/01/31 07:23:30;;;;;;;12.00;10.80;;;10.60;99.90;;;;;;4990967;28;20854;-63
2024/01/31 07:25:55;;;;;;;12.47;9.97;;;10.60;99.90;;;;;;4990557;28;20194;-63
2024/01/31 07:28:22;;;;;;;13.35;10.43;;;10.60;99.90;;;;;;4992428;28;20508;-63
2024/01/31 07:30:48;;;;;;;10.50;9.50;;;10.60;99.90;;;;;;4991587;28;20206;-63
2024/01/31 07:33:14;;;;;;;10.20;8.87;;;10.60;99.90;;;;;;4973670;28;20505;-63
2024/01/31 07:35:39;;;;;;;8.87;8.03;;;10.60;99.90;;;;;;4992363;28;20429;-63
2024/01/31 07:38:05;;;;;;;9.90;8.73;;;10.60;99.90;;;;;;4991675;28;20436;-63
2024/01/31 07:40:31;;;;;;;9.00;8.20;;;10.60;99.90;;;;;;4991388;28;20617;-63
2024/01/31 07:42:57;;;;;;;9.10;8.30;;;10.60;99.90;;;;;;4974049;28;20546;-62
2024/01/31 07:45:22;;;;;;;9.37;8.30;;;10.60;99.90;;;;;;4992186;28;20279;-63
2024/01/31 07:47:48;;;;;;;9.67;8.50;;;10.60;99.90;;;;;;4992205;28;20551;-63
2024/01/31 07:50:14;;;;;;;10.73;9.60;;;10.60;99.90;;;;;;4973700;28;20190;-63
2024/01/31 07:52:40;;;;;;;11.60;8.70;;;10.60;99.90;;;;;;4990462;28;20666;-62
2024/01/31 07:55:08;;;;;;;10.97;8.90;;;10.50;99.90;;;;;;4987036;28;20211;-62
2024/01/31 07:57:33;;;;;;;10.70;9.50;;;10.50;99.90;;;;;;4991471;28;20795;-63
2024/01/31 07:59:59;;;;;;;15.13;9.50;;;10.50;99.90;;;;;;4992511;28;20399;-62
2024/01/31 08:02:25;;;;;;;10.90;9.33;;;10.50;99.90;;;;;;4991532;28;20280;-63
2024/01/31 08:04:51;;;;;;;14.30;11.27;;;10.50;99.90;;;;;;4991387;28;20187;-62
2024/01/31 08:07:17;;;;;;;17.13;11.20;;;10.50;99.90;;;;;;4990312;28;20232;-66
2024/01/31 08:09:42;;;;;;;12.57;9.50;;;10.50;99.90;;;;;;4991545;28;20422;-67
2024/01/31 08:12:08;;;;;;;9.20;8.27;;;10.50;99.90;;;;;;4992312;28;20430;-63
2024/01/31 08:14:34;;;;;;;10.67;9.47;;;10.50;99.90;;;;;;4996894;28;20176;-63
2024/01/31 08:17:00;;;;;;;11.70;8.50;;;10.50;99.90;;;;;;4993308;28;20783;-63
2024/01/31 08:19:26;;;;;;;9.37;8.20;;;10.60;99.90;;;;;;4995416;28;20443;-62
2024/01/31 08:21:51;;;;;;;9.60;8.10;;;10.60;99.90;;;;;;4995924;28;20683;-62
2024/01/31 08:24:18;;;;;;;10.30;9.20;;;10.60;99.90;;;;;;4996746;28;20255;-63
2024/01/31 08:26:44;;;;;;;10.33;9.30;;;10.60;99.90;;;;;;4978629;28;20624;-63
2024/01/31 08:29:10;;;;;;;10.13;9.13;;;10.50;99.90;;;;;;4996038;28;20411;-63
2024/01/31 08:31:36;;;;;;;9.73;8.60;;;10.50;99.90;;;;;;4995702;28;20431;-63
2024/01/31 08:34:02;;;;;;;10.43;9.37;;;10.50;99.90;;;;;;4994381;28;20233;-63
2024/01/31 08:36:27;;;;;;;13.23;9.83;;;10.50;99.90;;;;;;4996147;28;20213;-63
2024/01/31 08:38:53;;;;;;;10.80;9.70;;;10.50;99.90;;;;;;4995167;28;20461;-63
2024/01/31 08:41:19;;;;;;;12.43;9.70;;;10.60;99.90;;;;;;4993387;28;20273;-63
2024/01/31 08:43:47;;;;;;;14.07;9.53;;;10.50;99.90;;;;;;4994023;28;20205;-63
2024/01/31 08:46:13;;;;;;;9.87;7.87;;;10.60;99.90;;;;;;4993736;28;20422;-63
2024/01/31 08:48:39;;;;;;;10.10;8.43;;;10.60;99.90;;;;;;4994094;28;20779;-63
2024/01/31 08:51:08;;;;;;;10.90;8.73;;;10.60;99.90;;;;;;4994425;28;20448;-63
2024/01/31 08:53:34;;;;;;;6.97;6.27;;;10.60;99.90;;;;;;4976553;28;20493;-61
2024/01/31 08:56:00;;;;;;;7.80;6.63;;;10.50;99.90;;;;;;4993568;28;20806;-62
2024/01/31 08:58:26;;;;;;;6.83;6.23;;;10.50;99.90;;;;;;4974191;28;20273;-62
2024/01/31 09:00:52;;;;;;;5.87;5.37;;;10.60;99.90;;;;;;4990980;28;21010;-63
2024/01/31 09:03:18;;;;;;;7.27;6.63;;;10.60;99.90;;;;;;4993612;28;20516;-63
2024/01/31 09:05:44;;;;;;;6.53;5.93;;;10.60;99.90;;;;;;4994719;28;20180;-62
2024/01/31 09:08:10;;;;;;;7.87;6.40;;;10.50;99.90;;;;;;4993738;28;20869;-68
2024/01/31 09:10:35;;;;;;;7.03;6.60;;;10.60;99.90;;;;;;4994744;28;20662;-63
2024/01/31 09:13:01;;;;;;;8.17;7.50;;;10.80;99.90;;;;;;4993325;28;20678;-63
2024/01/31 09:15:27;;;;;;;6.87;6.30;;;11.20;99.90;;;;;;4993876;28;20179;-65
2024/01/31 09:17:52;;;;;;;7.17;6.57;;;11.80;99.90;;;;;;4995281;28;20234;-64
2024/01/31 09:20:18;;;;;;;9.63;8.63;;;12.20;99.90;;;;;;4976051;28;20215;-64
2024/01/31 09:22:45;;;;;;;6.60;6.00;;;12.60;99.90;;;;;;4993706;28;20210;-64
2024/01/31 09:25:11;;;;;;;6.00;5.50;;;13.00;99.90;;;;;;4974921;28;20795;-63
2024/01/31 09:27:37;;;;;;;8.50;7.83;;;13.30;99.90;;;;;;4994985;28;20433;-64
2024/01/31 09:30:04;;;;;;;5.97;5.10;;;13.50;99.90;;;;;;4976894;28;20432;-63
2024/01/31 09:32:30;;;;;;;6.00;5.50;;;13.80;99.90;;;;;;4994205;28;20190;-64
2024/01/31 09:34:55;;;;;;;7.07;6.47;;;14.00;99.90;;;;;;4994911;28;20759;-63
2024/01/31 09:37:21;;;;;;;8.40;7.80;;;14.10;99.90;;;;;;4972609;28;20191;-64
2024/01/31 09:39:48;;;;;;;7.30;6.60;;;14.30;99.90;;;;;;4975953;28;20181;-63
2024/01/31 09:42:14;;;;;;;6.13;5.50;;;14.50;99.90;;;;;;4976648;28;20206;-64
2024/01/31 09:44:41;;;;;;;8.23;7.53;;;14.60;99.90;;;;;;4976522;28;20773;-64
2024/01/31 09:47:09;;;;;;;7.30;6.60;;;14.70;99.90;;;;;;4993028;28;20221;-63
2024/01/31 09:49:35;;;;;;;7.87;7.17;;;14.80;99.90;;;;;;4993190;28;20500;-62
2024/01/31 09:52:03;;;;;;;8.57;7.87;;;14.80;99.90;;;;;;4994146;28;20924;-63
2024/01/31 09:54:29;;;;;;;6.90;6.20;;;14.90;99.90;;;;;;4993873;28;20198;-69
2024/01/31 09:56:55;;;;;;;267.27;195.27;;;14.90;99.90;;;;;;4994935;28;20449;-69
2024/01/31 09:59:21;;;;;;;266.97;164.13;;;14.80;97.30;;;;;;4991660;28;20212;-68
2024/01/31 10:01:52;;;;;;;115.13;73.43;;;14.50;94.80;;;;;;4992231;28;20476;-69
2024/01/31 10:04:18;;;;;;;21.23;16.67;;;14.30;94.00;;;;;;4992525;28;20436;-69
2024/01/31 10:06:44;;;;;;;7.83;6.93;;;14.00;93.50;;;;;;4994690;28;20413;-69
2024/01/31 10:09:10;;;;;;;8.50;7.67;;;13.70;93.80;;;;;;4993106;28;20430;-69
2024/01/31 10:11:36;;;;;;;8.93;7.00;;;13.50;94.30;;;;;;4993675;28;20764;-68
2024/01/31 10:14:02;;;;;;;10.60;7.50;;;13.30;94.60;;;;;;4994215;28;20439;-68
2024/01/31 10:16:28;;;;;;;10.60;8.53;;;13.10;95.20;;;;;;4976627;28;20465;-68
2024/01/31 10:18:54;;;;;;;10.97;9.17;;;12.90;95.80;;;;;;4993066;28;20261;-68
2024/01/31 10:21:21;;;;;;;13.53;9.57;;;12.70;96.40;;;;;;4993902;28;20212;-68
2024/01/31 10:24:01;;;;;;;9.77;8.50;;;12.60;97.00;;;;;;4993544;28;20786;-69
2024/01/31 10:26:27;;;;;;;10.00;7.50;;;12.40;97.70;;;;;;4975850;28;20847;-67
2024/01/31 10:28:53;;;;;;;12.73;9.33;;;12.30;98.60;;;;;;4993489;28;20520;-72
2024/01/31 10:31:20;;;;;;;10.90;8.77;;;12.20;99.50;;;;;;4993092;28;20904;-73
2024/01/31 10:33:49;;;;;;;11.37;9.60;;;12.10;99.90;;;;;;4992659;28;20238;-71
2024/01/31 10:36:16;;;;;;;9.50;8.50;;;12.00;99.90;;;;;;4991489;28;20461;-71
2024/01/31 10:38:43;;;;;;;11.83;9.70;;;11.90;99.90;;;;;;4992847;28;20771;-72
2024/01/31 10:41:12;;;;;;;13.57;9.10;;;11.90;99.90;;;;;;4972340;28;20975;-72
2024/01/31 10:43:40;;;;;;;12.50;11.13;;;11.80;99.90;;;;;;4992815;28;20437;-70
2024/01/31 10:46:05;;;;;;;13.30;9.87;;;11.70;99.90;;;;;;4992314;28;20933;-69
2024/01/31 10:48:31;;;;;;;13.63;9.60;;;11.70;99.90;;;;;;4994059;28;20424;-70
2024/01/31 10:50:59;;;;;;;13.90;11.83;;;11.60;99.90;;;;;;4993218;28;20216;-71
2024/01/31 10:53:26;;;;;;;14.23;9.43;;;11.50;99.90;;;;;;4992060;28;20430;-70
2024/01/31 10:55:54;;;;;;;13.20;11.70;;;11.30;99.90;;;;;;4993635;28;20494;-69
2024/01/31 10:58:22;;;;;;;16.70;10.80;;;11.20;99.90;;;;;;4958606;28;20759;-70
2024/01/31 11:00:48;;;;;;;15.10;10.60;;;11.10;99.90;;;;;;4975188;28;20428;-70
2024/01/31 11:03:15;;;;;;;298.00;162.07;;;11.20;99.90;;;;;;4975548;28;20468;-63
2024/01/31 11:05:42;;;;;;;29.23;20.87;;;11.10;99.90;;;;;;4992632;28;20431;-70
2024/01/31 11:08:18;;;;;;;14.10;10.30;;;10.90;99.90;;;;;;4991629;28;20791;-66
2024/01/31 11:10:44;;;;;;;13.63;10.37;;;10.80;99.90;;;;;;4992071;28;20427;-67
2024/01/31 11:13:09;;;;;;;15.77;11.10;;;10.80;99.90;;;;;;4991965;28;20442;-74
2024/01/31 11:15:36;;;;;;;13.63;10.50;;;10.90;99.90;;;;;;4991255;28;20719;-74
2024/01/31 11:18:10;;;;;;;11.37;9.17;;;11.00;99.90;;;;;;4991530;28;20229;-75
2024/01/31 11:20:52;;;;;;;13.33;10.33;;;11.00;99.90;;;;;;4957458;28;20432;-75
2024/01/31 11:23:25;;;;;;;17.80;13.70;;;11.00;99.90;;;;;;4990693;28;20459;-74
2024/01/31 11:25:52;;;;;;;18.63;12.33;;;11.10;99.90;;;;;;4991184;28;20515;-71
2024/01/31 11:28:18;;;;;;;14.73;10.53;;;11.10;99.90;;;;;;4992454;28;20424;-70
2024/01/31 11:30:51;;;;;;;18.50;11.70;;;11.10;99.90;;;;;;4991712;28;20445;-70
2024/01/31 11:33:17;;;;;;;17.50;11.07;;;11.10;99.90;;;;;;4991377;28;20837;-70
2024/01/31 11:35:43;;;;;;;13.00;10.30;;;11.10;99.90;;;;;;4992690;28;20895;-71
2024/01/31 11:38:10;;;;;;;13.30;10.10;;;11.10;99.90;;;;;;4991003;28;20433;-72
2024/01/31 11:40:35;;;;;;;12.37;8.83;;;11.10;99.90;;;;;;4990855;28;20506;-70
2024/01/31 11:43:04;;;;;;;12.50;8.90;;;11.00;99.90;;;;;;4992567;28;20481;-70
2024/01/31 11:45:30;;;;;;;12.73;10.20;;;11.00;99.90;;;;;;4990208;28;20596;-70
2024/01/31 11:47:57;;;;;;;13.00;9.87;;;11.10;99.90;;;;;;4990066;28;20519;-70
2024/01/31 11:50:25;;;;;;;13.40;10.10;;;11.10;99.90;;;;;;4991362;28;20436;-69
2024/01/31 11:52:52;;;;;;;13.97;10.00;;;11.10;99.90;;;;;;4991726;28;20517;-70
2024/01/31 11:55:22;;;;;;;11.97;9.60;;;11.10;99.90;;;;;;4973064;28;20510;-73
2024/01/31 11:57:48;;;;;;;12.30;9.33;;;11.10;99.90;;;;;;4991813;28;20849;-73
2024/01/31 12:00:16;;;;;;;14.37;10.53;;;11.20;99.90;;;;;;4990368;28;20497;-74
2024/01/31 12:02:41;;;;;;;13.53;8.83;;;11.20;99.90;;;;;;4956899;28;20903;-74
2024/01/31 12:05:08;;;;;;;10.97;8.63;;;11.20;99.90;;;;;;4990103;28;20517;-66
2024/01/31 12:07:33;;;;;;;13.80;10.00;;;11.20;99.90;;;;;;4990340;28;20234;-69
2024/01/31 12:09:59;;;;;;;14.00;9.90;;;11.20;99.90;;;;;;4992316;28;20814;-70
2024/01/31 12:12:26;;;;;;;14.50;10.90;;;11.20;99.90;;;;;;4973517;28;20444;-70
2024/01/31 12:14:53;;;;;;;13.27;11.33;;;11.20;99.90;;;;;;4990546;28;20438;-69
2024/01/31 12:17:23;;;;;;;12.60;10.93;;;11.10;99.90;;;;;;4990175;28;20454;-70
2024/01/31 12:19:50;;;;;;;13.50;11.23;;;11.10;99.90;;;;;;4973875;28;20454;-70
2024/01/31 12:22:18;;;;;;;12.93;10.47;;;11.10;99.90;;;;;;4973056;28;20458;-72
2024/01/31 12:24:47;;;;;;;12.83;9.97;;;11.10;99.90;;;;;;4991094;28;20507;-74
2024/01/31 12:27:13;;;;;;;15.10;10.53;;;11.10;99.90;;;;;;4989078;28;20947;-73
2024/01/31 12:29:39;;;;;;;15.20;10.57;;;11.10;99.90;;;;;;4991338;28;20435;-74
2024/01/31 12:32:06;;;;;;;13.87;10.73;;;11.10;99.90;;;;;;4992377;28;20271;-73
2024/01/31 12:34:31;;;;;;;13.13;9.87;;;11.10;99.90;;;;;;4990136;28;20426;-74